sensor_id;sensor_type;location;lat;lon;timestamp;P1;durP1;ratioP1;P2;durP2;ratioP2
3070;SDS011;1546;47.208;9.038;2023-04-27T00:01:05;5.97;;;2.67;;
3070;SDS011;1546;47.208;9.038;2023-04-27T00:03:35;7.00;;;2.92;;
3070;SDS011;1546;47.208;9.038;2023-04-27T00:06:03;5.45;;;2.95;;
3070;SDS011;1546;47.208;9.038;2023-04-27T00:08:30;7.90;;;3.72;;
3070;SDS011;1546;47.208;9.038;2023-04-27T00:10:57;7.68;;;3.20;;
3070;SDS011;1546;47.208;9.038;2023-04-27T00:13:24;8.93;;;3.63;;
3070;SDS011;1546;47.208;9.038;2023-04-27T00:15:51;4.85;;;2.63;;
3070;SDS011;1546;47.208;9.038;2023-04-27T00:18:18;6.07;;;3.13;;
3070;SDS011;1546;47.208;9.038;2023-04-27T00:20:45;7.25;;;2.88;;
3070;SDS011;1546;47.208;9.038;2023-04-27T00:23:13;7.25;;;2.80;;
3070;SDS011;1546;47.208;9.038;2023-04-27T00:25:40;6.15;;;2.85;;
3070;SDS011;1546;47.208;9.038;2023-04-27T00:28:07;9.38;;;2.92;;
3070;SDS011;1546;47.208;9.038;2023-04-27T00:30:34;7.25;;;3.15;;
3070;SDS011;1546;47.208;9.038;2023-04-27T00:33:01;7.85;;;3.00;;
3070;SDS011;1546;47.208;9.038;2023-04-27T00:35:27;6.47;;;3.30;;
3070;SDS011;1546;47.208;9.038;2023-04-27T00:37:54;6.40;;;3.25;;
3070;SDS011;1546;47.208;9.038;2023-04-27T00:40:22;7.22;;;3.83;;
3070;SDS011;1546;47.208;9.038;2023-04-27T00:42:49;9.18;;;4.05;;
3070;SDS011;1546;47.208;9.038;2023-04-27T00:45:16;6.57;;;3.03;;
3070;SDS011;1546;47.208;9.038;2023-04-27T00:47:43;6.55;;;2.70;;
3070;SDS011;1546;47.208;9.038;2023-04-27T00:50:10;7.20;;;2.80;;
3070;SDS011;1546;47.208;9.038;2023-04-27T00:52:37;5.90;;;2.63;;
3070;SDS011;1546;47.208;9.038;2023-04-27T00:55:05;5.60;;;2.63;;
3070;SDS011;1546;47.208;9.038;2023-04-27T00:57:35;4.53;;;2.33;;
3070;SDS011;1546;47.208;9.038;2023-04-27T01:00:03;9.70;;;3.20;;
3070;SDS011;1546;47.208;9.038;2023-04-27T01:02:31;7.10;;;3.25;;
3070;SDS011;1546;47.208;9.038;2023-04-27T01:04:58;7.53;;;3.40;;
3070;SDS011;1546;47.208;9.038;2023-04-27T01:07:26;7.10;;;3.00;;
3070;SDS011;1546;47.208;9.038;2023-04-27T01:09:52;7.75;;;3.40;;
3070;SDS011;1546;47.208;9.038;2023-04-27T01:12:19;6.40;;;3.05;;
3070;SDS011;1546;47.208;9.038;2023-04-27T01:14:47;8.95;;;3.28;;
3070;SDS011;1546;47.208;9.038;2023-04-27T01:17:14;6.40;;;3.33;;
3070;SDS011;1546;47.208;9.038;2023-04-27T01:19:42;7.97;;;3.10;;
3070;SDS011;1546;47.208;9.038;2023-04-27T01:22:09;7.70;;;3.63;;
3070;SDS011;1546;47.208;9.038;2023-04-27T01:24:37;7.22;;;2.83;;
3070;SDS011;1546;47.208;9.038;2023-04-27T01:27:04;7.72;;;3.40;;
3070;SDS011;1546;47.208;9.038;2023-04-27T01:29:31;6.45;;;3.30;;
3070;SDS011;1546;47.208;9.038;2023-04-27T01:31:58;7.00;;;3.30;;
3070;SDS011;1546;47.208;9.038;2023-04-27T01:34:25;6.45;;;3.13;;
3070;SDS011;1546;47.208;9.038;2023-04-27T01:36:52;6.25;;;3.10;;
3070;SDS011;1546;47.208;9.038;2023-04-27T01:39:19;6.85;;;2.55;;
3070;SDS011;1546;47.208;9.038;2023-04-27T01:41:47;6.13;;;2.63;;
3070;SDS011;1546;47.208;9.038;2023-04-27T01:44:14;7.35;;;2.90;;
3070;SDS011;1546;47.208;9.038;2023-04-27T01:46:41;7.13;;;2.70;;
3070;SDS011;1546;47.208;9.038;2023-04-27T01:49:08;7.93;;;3.40;;
3070;SDS011;1546;47.208;9.038;2023-04-27T01:51:35;6.20;;;3.00;;
3070;SDS011;1546;47.208;9.038;2023-04-27T01:54:02;5.05;;;2.40;;
3070;SDS011;1546;47.208;9.038;2023-04-27T01:56:29;4.97;;;2.50;;
3070;SDS011;1546;47.208;9.038;2023-04-27T01:58:57;7.53;;;3.33;;
3070;SDS011;1546;47.208;9.038;2023-04-27T02:01:24;6.75;;;3.33;;
3070;SDS011;1546;47.208;9.038;2023-04-27T02:03:50;6.45;;;2.70;;
3070;SDS011;1546;47.208;9.038;2023-04-27T02:06:17;6.45;;;3.53;;
3070;SDS011;1546;47.208;9.038;2023-04-27T02:08:44;9.95;;;3.53;;
3070;SDS011;1546;47.208;9.038;2023-04-27T02:11:11;6.10;;;3.08;;
3070;SDS011;1546;47.208;9.038;2023-04-27T02:13:38;5.72;;;3.00;;
3070;SDS011;1546;47.208;9.038;2023-04-27T02:16:06;10.57;;;4.60;;
3070;SDS011;1546;47.208;9.038;2023-04-27T02:18:33;6.35;;;3.90;;
3070;SDS011;1546;47.208;9.038;2023-04-27T02:21:00;8.20;;;4.38;;
3070;SDS011;1546;47.208;9.038;2023-04-27T02:23:27;7.50;;;4.05;;
3070;SDS011;1546;47.208;9.038;2023-04-27T02:25:54;7.80;;;3.65;;
3070;SDS011;1546;47.208;9.038;2023-04-27T02:28:20;12.90;;;4.28;;
3070;SDS011;1546;47.208;9.038;2023-04-27T02:30:47;6.90;;;4.50;;
3070;SDS011;1546;47.208;9.038;2023-04-27T02:33:15;9.43;;;3.47;;
3070;SDS011;1546;47.208;9.038;2023-04-27T02:35:42;8.00;;;3.20;;
3070;SDS011;1546;47.208;9.038;2023-04-27T02:38:09;6.18;;;2.90;;
3070;SDS011;1546;47.208;9.038;2023-04-27T02:40:37;11.05;;;3.50;;
3070;SDS011;1546;47.208;9.038;2023-04-27T02:43:04;7.47;;;3.22;;
3070;SDS011;1546;47.208;9.038;2023-04-27T02:45:31;7.75;;;2.85;;
3070;SDS011;1546;47.208;9.038;2023-04-27T02:48:01;7.45;;;3.60;;
3070;SDS011;1546;47.208;9.038;2023-04-27T02:50:30;7.15;;;3.40;;
3070;SDS011;1546;47.208;9.038;2023-04-27T02:52:57;6.80;;;3.20;;
3070;SDS011;1546;47.208;9.038;2023-04-27T02:55:24;13.45;;;4.80;;
3070;SDS011;1546;47.208;9.038;2023-04-27T02:57:51;7.10;;;3.63;;
3070;SDS011;1546;47.208;9.038;2023-04-27T03:00:18;8.85;;;5.35;;
3070;SDS011;1546;47.208;9.038;2023-04-27T03:02:45;11.05;;;5.40;;
3070;SDS011;1546;47.208;9.038;2023-04-27T03:05:12;7.95;;;4.43;;
3070;SDS011;1546;47.208;9.038;2023-04-27T03:07:40;11.43;;;4.80;;
3070;SDS011;1546;47.208;9.038;2023-04-27T03:10:07;6.80;;;3.92;;
3070;SDS011;1546;47.208;9.038;2023-04-27T03:12:35;6.65;;;4.05;;
3070;SDS011;1546;47.208;9.038;2023-04-27T03:15:02;8.75;;;4.00;;
3070;SDS011;1546;47.208;9.038;2023-04-27T03:17:29;7.15;;;3.30;;
3070;SDS011;1546;47.208;9.038;2023-04-27T03:19:56;8.13;;;3.47;;
3070;SDS011;1546;47.208;9.038;2023-04-27T03:22:23;7.22;;;3.40;;
3070;SDS011;1546;47.208;9.038;2023-04-27T03:24:51;12.98;;;3.92;;
3070;SDS011;1546;47.208;9.038;2023-04-27T03:27:18;9.43;;;3.65;;
3070;SDS011;1546;47.208;9.038;2023-04-27T03:29:45;7.00;;;4.07;;
3070;SDS011;1546;47.208;9.038;2023-04-27T03:32:11;5.95;;;3.47;;
3070;SDS011;1546;47.208;9.038;2023-04-27T03:34:38;10.15;;;3.75;;
3070;SDS011;1546;47.208;9.038;2023-04-27T03:37:05;7.28;;;3.22;;
3070;SDS011;1546;47.208;9.038;2023-04-27T03:39:32;10.88;;;4.13;;
3070;SDS011;1546;47.208;9.038;2023-04-27T03:42:00;6.18;;;3.65;;
3070;SDS011;1546;47.208;9.038;2023-04-27T03:44:27;7.10;;;3.90;;
3070;SDS011;1546;47.208;9.038;2023-04-27T03:46:55;11.30;;;5.38;;
3070;SDS011;1546;47.208;9.038;2023-04-27T03:49:22;9.07;;;5.05;;
3070;SDS011;1546;47.208;9.038;2023-04-27T03:51:49;11.00;;;4.70;;
3070;SDS011;1546;47.208;9.038;2023-04-27T03:54:16;11.20;;;4.80;;
3070;SDS011;1546;47.208;9.038;2023-04-27T03:56:42;11.27;;;5.07;;
3070;SDS011;1546;47.208;9.038;2023-04-27T03:59:11;8.85;;;4.28;;
3070;SDS011;1546;47.208;9.038;2023-04-27T04:01:37;6.88;;;4.65;;
3070;SDS011;1546;47.208;9.038;2023-04-27T04:04:05;10.48;;;5.00;;
3070;SDS011;1546;47.208;9.038;2023-04-27T04:06:32;8.82;;;4.20;;
3070;SDS011;1546;47.208;9.038;2023-04-27T04:08:59;7.50;;;4.07;;
3070;SDS011;1546;47.208;9.038;2023-04-27T04:11:26;7.20;;;3.97;;
3070;SDS011;1546;47.208;9.038;2023-04-27T04:13:52;8.88;;;3.60;;
3070;SDS011;1546;47.208;9.038;2023-04-27T04:16:21;7.15;;;3.20;;
3070;SDS011;1546;47.208;9.038;2023-04-27T04:18:47;7.05;;;3.70;;
3070;SDS011;1546;47.208;9.038;2023-04-27T04:21:14;9.75;;;4.97;;
3070;SDS011;1546;47.208;9.038;2023-04-27T04:23:41;7.43;;;4.22;;
3070;SDS011;1546;47.208;9.038;2023-04-27T04:26:08;10.20;;;5.85;;
3070;SDS011;1546;47.208;9.038;2023-04-27T04:28:35;9.13;;;5.07;;
3070;SDS011;1546;47.208;9.038;2023-04-27T04:31:02;9.23;;;5.20;;
3070;SDS011;1546;47.208;9.038;2023-04-27T04:33:31;11.40;;;4.93;;
3070;SDS011;1546;47.208;9.038;2023-04-27T04:35:58;7.85;;;3.90;;
3070;SDS011;1546;47.208;9.038;2023-04-27T04:38:28;7.30;;;3.60;;
3070;SDS011;1546;47.208;9.038;2023-04-27T04:40:54;7.32;;;4.60;;
3070;SDS011;1546;47.208;9.038;2023-04-27T04:43:21;7.60;;;3.95;;
3070;SDS011;1546;47.208;9.038;2023-04-27T04:45:48;10.32;;;6.20;;
3070;SDS011;1546;47.208;9.038;2023-04-27T04:48:15;7.47;;;4.55;;
3070;SDS011;1546;47.208;9.038;2023-04-27T04:50:45;7.13;;;4.15;;
3070;SDS011;1546;47.208;9.038;2023-04-27T04:53:11;9.73;;;4.40;;
3070;SDS011;1546;47.208;9.038;2023-04-27T04:55:38;9.25;;;4.00;;
3070;SDS011;1546;47.208;9.038;2023-04-27T04:58:05;8.00;;;4.85;;
3070;SDS011;1546;47.208;9.038;2023-04-27T05:00:32;9.48;;;4.10;;
3070;SDS011;1546;47.208;9.038;2023-04-27T05:02:59;7.75;;;4.13;;
3070;SDS011;1546;47.208;9.038;2023-04-27T05:05:26;6.47;;;3.10;;
3070;SDS011;1546;47.208;9.038;2023-04-27T05:07:54;13.00;;;3.72;;
3070;SDS011;1546;47.208;9.038;2023-04-27T05:10:21;6.38;;;3.10;;
3070;SDS011;1546;47.208;9.038;2023-04-27T05:12:48;7.43;;;2.95;;
3070;SDS011;1546;47.208;9.038;2023-04-27T05:15:15;6.75;;;3.70;;
3070;SDS011;1546;47.208;9.038;2023-04-27T05:17:42;7.82;;;3.45;;
3070;SDS011;1546;47.208;9.038;2023-04-27T05:20:09;7.22;;;3.17;;
3070;SDS011;1546;47.208;9.038;2023-04-27T05:22:36;5.50;;;2.80;;
3070;SDS011;1546;47.208;9.038;2023-04-27T05:25:04;9.90;;;3.30;;
3070;SDS011;1546;47.208;9.038;2023-04-27T05:27:32;5.88;;;2.80;;
3070;SDS011;1546;47.208;9.038;2023-04-27T05:29:59;7.18;;;3.65;;
3070;SDS011;1546;47.208;9.038;2023-04-27T05:32:27;9.27;;;4.00;;
3070;SDS011;1546;47.208;9.038;2023-04-27T05:34:53;6.28;;;3.20;;
3070;SDS011;1546;47.208;9.038;2023-04-27T05:37:20;11.18;;;5.07;;
3070;SDS011;1546;47.208;9.038;2023-04-27T05:39:47;9.82;;;3.13;;
3070;SDS011;1546;47.208;9.038;2023-04-27T05:42:15;6.15;;;3.40;;
3070;SDS011;1546;47.208;9.038;2023-04-27T05:44:42;6.20;;;3.03;;
3070;SDS011;1546;47.208;9.038;2023-04-27T05:47:09;7.18;;;2.53;;
3070;SDS011;1546;47.208;9.038;2023-04-27T05:49:36;7.32;;;2.80;;
3070;SDS011;1546;47.208;9.038;2023-04-27T05:52:03;6.60;;;2.83;;
3070;SDS011;1546;47.208;9.038;2023-04-27T05:54:29;8.57;;;3.35;;
3070;SDS011;1546;47.208;9.038;2023-04-27T05:56:56;7.75;;;2.88;;
3070;SDS011;1546;47.208;9.038;2023-04-27T05:59:24;6.07;;;3.30;;
3070;SDS011;1546;47.208;9.038;2023-04-27T06:01:53;7.53;;;4.60;;
3070;SDS011;1546;47.208;9.038;2023-04-27T06:04:20;6.90;;;4.30;;
3070;SDS011;1546;47.208;9.038;2023-04-27T06:06:47;7.00;;;4.72;;
3070;SDS011;1546;47.208;9.038;2023-04-27T06:09:14;9.65;;;4.90;;
3070;SDS011;1546;47.208;9.038;2023-04-27T06:11:41;7.78;;;4.78;;
3070;SDS011;1546;47.208;9.038;2023-04-27T06:14:08;7.47;;;4.25;;
3070;SDS011;1546;47.208;9.038;2023-04-27T06:16:37;9.68;;;5.50;;
3070;SDS011;1546;47.208;9.038;2023-04-27T06:19:04;9.05;;;4.40;;
3070;SDS011;1546;47.208;9.038;2023-04-27T06:21:31;9.40;;;4.10;;
3070;SDS011;1546;47.208;9.038;2023-04-27T06:23:58;7.00;;;4.00;;
3070;SDS011;1546;47.208;9.038;2023-04-27T06:26:26;8.27;;;4.35;;
3070;SDS011;1546;47.208;9.038;2023-04-27T06:28:53;11.00;;;4.22;;
3070;SDS011;1546;47.208;9.038;2023-04-27T06:31:20;10.60;;;5.20;;
3070;SDS011;1546;47.208;9.038;2023-04-27T06:33:48;9.82;;;4.82;;
3070;SDS011;1546;47.208;9.038;2023-04-27T06:36:15;7.70;;;5.13;;
3070;SDS011;1546;47.208;9.038;2023-04-27T06:38:42;9.05;;;4.93;;
3070;SDS011;1546;47.208;9.038;2023-04-27T06:41:09;10.77;;;6.15;;
3070;SDS011;1546;47.208;9.038;2023-04-27T06:43:35;8.18;;;5.43;;
3070;SDS011;1546;47.208;9.038;2023-04-27T06:46:03;9.50;;;5.97;;
3070;SDS011;1546;47.208;9.038;2023-04-27T06:48:30;9.27;;;5.07;;
3070;SDS011;1546;47.208;9.038;2023-04-27T06:50:58;10.15;;;6.25;;
3070;SDS011;1546;47.208;9.038;2023-04-27T06:53:25;8.38;;;5.30;;
3070;SDS011;1546;47.208;9.038;2023-04-27T06:55:52;8.40;;;5.20;;
3070;SDS011;1546;47.208;9.038;2023-04-27T06:58:18;7.30;;;4.20;;
3070;SDS011;1546;47.208;9.038;2023-04-27T07:00:46;6.93;;;4.47;;
3070;SDS011;1546;47.208;9.038;2023-04-27T07:03:13;8.05;;;5.07;;
3070;SDS011;1546;47.208;9.038;2023-04-27T07:05:40;9.48;;;4.97;;
3070;SDS011;1546;47.208;9.038;2023-04-27T07:08:09;7.60;;;4.60;;
3070;SDS011;1546;47.208;9.038;2023-04-27T07:10:35;7.05;;;3.78;;
3070;SDS011;1546;47.208;9.038;2023-04-27T07:13:02;9.20;;;5.25;;
3070;SDS011;1546;47.208;9.038;2023-04-27T07:15:29;12.30;;;4.65;;
3070;SDS011;1546;47.208;9.038;2023-04-27T07:17:56;8.35;;;4.80;;
3070;SDS011;1546;47.208;9.038;2023-04-27T07:20:23;8.25;;;5.20;;
3070;SDS011;1546;47.208;9.038;2023-04-27T07:22:50;7.45;;;4.95;;
3070;SDS011;1546;47.208;9.038;2023-04-27T07:25:19;8.15;;;4.20;;
3070;SDS011;1546;47.208;9.038;2023-04-27T07:27:46;11.80;;;5.32;;
3070;SDS011;1546;47.208;9.038;2023-04-27T07:30:13;7.65;;;4.50;;
3070;SDS011;1546;47.208;9.038;2023-04-27T07:32:41;11.38;;;4.32;;
3070;SDS011;1546;47.208;9.038;2023-04-27T07:35:08;10.40;;;5.10;;
3070;SDS011;1546;47.208;9.038;2023-04-27T07:37:35;10.27;;;4.35;;
3070;SDS011;1546;47.208;9.038;2023-04-27T07:40:04;7.88;;;4.40;;
3070;SDS011;1546;47.208;9.038;2023-04-27T07:42:41;7.18;;;4.20;;
3070;SDS011;1546;47.208;9.038;2023-04-27T07:45:08;6.90;;;4.25;;
3070;SDS011;1546;47.208;9.038;2023-04-27T07:47:35;6.90;;;4.05;;
3070;SDS011;1546;47.208;9.038;2023-04-27T07:50:03;8.40;;;4.07;;
3070;SDS011;1546;47.208;9.038;2023-04-27T07:52:31;8.70;;;4.47;;
3070;SDS011;1546;47.208;9.038;2023-04-27T07:54:58;11.43;;;4.40;;
3070;SDS011;1546;47.208;9.038;2023-04-27T07:57:25;10.00;;;4.10;;
3070;SDS011;1546;47.208;9.038;2023-04-27T07:59:53;9.65;;;4.10;;
3070;SDS011;1546;47.208;9.038;2023-04-27T08:02:21;8.38;;;4.22;;
3070;SDS011;1546;47.208;9.038;2023-04-27T08:04:49;10.27;;;4.40;;
3070;SDS011;1546;47.208;9.038;2023-04-27T08:07:15;8.13;;;4.85;;
3070;SDS011;1546;47.208;9.038;2023-04-27T08:09:42;7.70;;;4.50;;
3070;SDS011;1546;47.208;9.038;2023-04-27T08:12:10;9.93;;;5.43;;
3070;SDS011;1546;47.208;9.038;2023-04-27T08:14:36;7.93;;;3.92;;
3070;SDS011;1546;47.208;9.038;2023-04-27T08:17:05;8.73;;;4.75;;
3070;SDS011;1546;47.208;9.038;2023-04-27T08:19:31;10.30;;;4.60;;
3070;SDS011;1546;47.208;9.038;2023-04-27T08:21:59;10.25;;;5.88;;
3070;SDS011;1546;47.208;9.038;2023-04-27T08:24:26;7.57;;;5.00;;
3070;SDS011;1546;47.208;9.038;2023-04-27T08:26:52;6.15;;;4.38;;
3070;SDS011;1546;47.208;9.038;2023-04-27T08:29:19;14.32;;;4.13;;
3070;SDS011;1546;47.208;9.038;2023-04-27T08:31:46;6.70;;;4.18;;
3070;SDS011;1546;47.208;9.038;2023-04-27T08:34:14;7.25;;;4.70;;
3070;SDS011;1546;47.208;9.038;2023-04-27T08:36:41;7.03;;;4.50;;
3070;SDS011;1546;47.208;9.038;2023-04-27T08:39:08;10.73;;;5.85;;
3070;SDS011;1546;47.208;9.038;2023-04-27T08:41:35;12.48;;;5.20;;
3070;SDS011;1546;47.208;9.038;2023-04-27T08:44:07;9.48;;;5.03;;
3070;SDS011;1546;47.208;9.038;2023-04-27T08:46:33;8.82;;;4.90;;
3070;SDS011;1546;47.208;9.038;2023-04-27T08:49:02;6.20;;;3.85;;
3070;SDS011;1546;47.208;9.038;2023-04-27T08:51:32;8.95;;;5.15;;
3070;SDS011;1546;47.208;9.038;2023-04-27T08:53:59;9.18;;;4.70;;
3070;SDS011;1546;47.208;9.038;2023-04-27T08:56:27;8.25;;;4.30;;
3070;SDS011;1546;47.208;9.038;2023-04-27T08:58:55;7.82;;;4.95;;
3070;SDS011;1546;47.208;9.038;2023-04-27T09:01:23;6.97;;;4.20;;
3070;SDS011;1546;47.208;9.038;2023-04-27T09:03:54;6.88;;;3.90;;
3070;SDS011;1546;47.208;9.038;2023-04-27T09:06:27;6.63;;;3.78;;
3070;SDS011;1546;47.208;9.038;2023-04-27T09:08:57;6.53;;;3.70;;
3070;SDS011;1546;47.208;9.038;2023-04-27T09:11:28;6.57;;;3.80;;
3070;SDS011;1546;47.208;9.038;2023-04-27T09:13:57;8.23;;;4.40;;
3070;SDS011;1546;47.208;9.038;2023-04-27T09:16:25;6.15;;;3.35;;
3070;SDS011;1546;47.208;9.038;2023-04-27T09:18:54;7.90;;;4.60;;
3070;SDS011;1546;47.208;9.038;2023-04-27T09:21:21;10.63;;;4.78;;
3070;SDS011;1546;47.208;9.038;2023-04-27T09:23:49;6.63;;;4.10;;
3070;SDS011;1546;47.208;9.038;2023-04-27T09:26:19;7.80;;;4.60;;
3070;SDS011;1546;47.208;9.038;2023-04-27T09:28:48;12.48;;;4.18;;
3070;SDS011;1546;47.208;9.038;2023-04-27T09:31:16;9.07;;;4.00;;
3070;SDS011;1546;47.208;9.038;2023-04-27T09:33:43;6.20;;;3.70;;
3070;SDS011;1546;47.208;9.038;2023-04-27T09:36:11;6.95;;;3.78;;
3070;SDS011;1546;47.208;9.038;2023-04-27T09:38:39;7.80;;;4.07;;
3070;SDS011;1546;47.208;9.038;2023-04-27T09:41:06;5.85;;;3.33;;
3070;SDS011;1546;47.208;9.038;2023-04-27T09:43:35;6.60;;;3.55;;
3070;SDS011;1546;47.208;9.038;2023-04-27T09:46:03;5.47;;;2.55;;
3070;SDS011;1546;47.208;9.038;2023-04-27T09:48:30;4.97;;;2.72;;
3070;SDS011;1546;47.208;9.038;2023-04-27T09:50:57;6.53;;;2.97;;
3070;SDS011;1546;47.208;9.038;2023-04-27T09:53:25;5.37;;;2.67;;
3070;SDS011;1546;47.208;9.038;2023-04-27T09:55:58;4.80;;;2.67;;
3070;SDS011;1546;47.208;9.038;2023-04-27T09:58:51;5.15;;;2.35;;
3070;SDS011;1546;47.208;9.038;2023-04-27T10:01:29;7.57;;;2.60;;
3070;SDS011;1546;47.208;9.038;2023-04-27T10:04:07;7.32;;;2.45;;
3070;SDS011;1546;47.208;9.038;2023-04-27T10:06:50;5.47;;;2.80;;
3070;SDS011;1546;47.208;9.038;2023-04-27T10:09:23;6.47;;;3.15;;
3070;SDS011;1546;47.208;9.038;2023-04-27T10:11:51;5.23;;;2.60;;
3070;SDS011;1546;47.208;9.038;2023-04-27T10:14:21;5.90;;;2.40;;
3070;SDS011;1546;47.208;9.038;2023-04-27T10:16:49;5.50;;;2.50;;
3070;SDS011;1546;47.208;9.038;2023-04-27T10:19:18;5.13;;;2.17;;
3070;SDS011;1546;47.208;9.038;2023-04-27T10:21:52;5.87;;;2.40;;
3070;SDS011;1546;47.208;9.038;2023-04-27T10:24:30;5.83;;;2.10;;
3070;SDS011;1546;47.208;9.038;2023-04-27T10:27:04;6.05;;;2.15;;
3070;SDS011;1546;47.208;9.038;2023-04-27T10:29:37;5.40;;;2.00;;
3070;SDS011;1546;47.208;9.038;2023-04-27T10:32:06;4.17;;;1.70;;
3070;SDS011;1546;47.208;9.038;2023-04-27T10:34:34;5.83;;;1.53;;
3070;SDS011;1546;47.208;9.038;2023-04-27T10:37:05;4.20;;;1.70;;
3070;SDS011;1546;47.208;9.038;2023-04-27T10:39:34;7.00;;;1.67;;
3070;SDS011;1546;47.208;9.038;2023-04-27T10:42:02;4.43;;;1.23;;
3070;SDS011;1546;47.208;9.038;2023-04-27T10:44:31;4.60;;;1.23;;
3070;SDS011;1546;47.208;9.038;2023-04-27T10:47:00;6.00;;;1.90;;
3070;SDS011;1546;47.208;9.038;2023-04-27T10:49:37;4.83;;;1.30;;
3070;SDS011;1546;47.208;9.038;2023-04-27T10:52:04;4.53;;;1.50;;
3070;SDS011;1546;47.208;9.038;2023-04-27T10:54:31;4.03;;;1.50;;
3070;SDS011;1546;47.208;9.038;2023-04-27T10:57:05;4.30;;;1.30;;
3070;SDS011;1546;47.208;9.038;2023-04-27T10:59:34;4.10;;;1.70;;
3070;SDS011;1546;47.208;9.038;2023-04-27T11:02:15;4.60;;;1.20;;
3070;SDS011;1546;47.208;9.038;2023-04-27T11:04:43;3.90;;;1.40;;
3070;SDS011;1546;47.208;9.038;2023-04-27T11:07:10;5.27;;;1.37;;
3070;SDS011;1546;47.208;9.038;2023-04-27T11:09:38;4.47;;;1.43;;
3070;SDS011;1546;47.208;9.038;2023-04-27T11:12:08;4.80;;;1.73;;
3070;SDS011;1546;47.208;9.038;2023-04-27T11:14:37;5.00;;;1.83;;
3070;SDS011;1546;47.208;9.038;2023-04-27T11:17:04;4.93;;;1.80;;
3070;SDS011;1546;47.208;9.038;2023-04-27T11:19:42;4.50;;;1.40;;
3070;SDS011;1546;47.208;9.038;2023-04-27T11:22:11;4.53;;;1.50;;
3070;SDS011;1546;47.208;9.038;2023-04-27T11:24:45;5.30;;;1.37;;
3070;SDS011;1546;47.208;9.038;2023-04-27T11:27:12;4.07;;;1.50;;
3070;SDS011;1546;47.208;9.038;2023-04-27T11:29:39;4.40;;;1.63;;
3070;SDS011;1546;47.208;9.038;2023-04-27T11:32:06;4.60;;;1.50;;
3070;SDS011;1546;47.208;9.038;2023-04-27T11:34:34;4.60;;;1.70;;
3070;SDS011;1546;47.208;9.038;2023-04-27T11:37:03;5.63;;;1.70;;
3070;SDS011;1546;47.208;9.038;2023-04-27T11:39:32;5.30;;;1.83;;
3070;SDS011;1546;47.208;9.038;2023-04-27T11:42:13;4.17;;;1.50;;
3070;SDS011;1546;47.208;9.038;2023-04-27T11:44:42;5.40;;;1.50;;
3070;SDS011;1546;47.208;9.038;2023-04-27T11:47:15;3.90;;;1.40;;
3070;SDS011;1546;47.208;9.038;2023-04-27T11:49:46;5.40;;;1.40;;
3070;SDS011;1546;47.208;9.038;2023-04-27T11:52:13;5.80;;;1.77;;
3070;SDS011;1546;47.208;9.038;2023-04-27T11:54:46;4.43;;;1.67;;
3070;SDS011;1546;47.208;9.038;2023-04-27T11:57:13;4.13;;;1.50;;
3070;SDS011;1546;47.208;9.038;2023-04-27T11:59:40;4.53;;;1.50;;
3070;SDS011;1546;47.208;9.038;2023-04-27T12:02:07;5.60;;;1.70;;
3070;SDS011;1546;47.208;9.038;2023-04-27T12:04:34;4.50;;;1.70;;
3070;SDS011;1546;47.208;9.038;2023-04-27T12:07:03;3.90;;;1.50;;
3070;SDS011;1546;47.208;9.038;2023-04-27T12:09:30;5.43;;;1.40;;
3070;SDS011;1546;47.208;9.038;2023-04-27T12:11:56;4.80;;;1.70;;
3070;SDS011;1546;47.208;9.038;2023-04-27T12:14:23;4.40;;;1.80;;
3070;SDS011;1546;47.208;9.038;2023-04-27T12:16:50;6.20;;;1.30;;
3070;SDS011;1546;47.208;9.038;2023-04-27T12:19:17;4.57;;;1.90;;
3070;SDS011;1546;47.208;9.038;2023-04-27T12:21:44;6.33;;;1.97;;
3070;SDS011;1546;47.208;9.038;2023-04-27T12:24:12;5.43;;;1.80;;
3070;SDS011;1546;47.208;9.038;2023-04-27T12:26:39;5.40;;;1.50;;
3070;SDS011;1546;47.208;9.038;2023-04-27T12:29:06;4.00;;;1.10;;
3070;SDS011;1546;47.208;9.038;2023-04-27T12:31:33;5.20;;;1.77;;
3070;SDS011;1546;47.208;9.038;2023-04-27T12:34:00;5.23;;;1.70;;
3070;SDS011;1546;47.208;9.038;2023-04-27T12:36:27;4.53;;;1.90;;
3070;SDS011;1546;47.208;9.038;2023-04-27T12:38:56;4.20;;;1.50;;
3070;SDS011;1546;47.208;9.038;2023-04-27T12:41:27;7.37;;;2.03;;
3070;SDS011;1546;47.208;9.038;2023-04-27T12:43:53;4.67;;;2.03;;
3070;SDS011;1546;47.208;9.038;2023-04-27T12:46:20;4.10;;;1.60;;
3070;SDS011;1546;47.208;9.038;2023-04-27T12:48:47;5.30;;;2.17;;
3070;SDS011;1546;47.208;9.038;2023-04-27T12:51:14;5.13;;;1.90;;
3070;SDS011;1546;47.208;9.038;2023-04-27T12:53:41;6.63;;;2.30;;
3070;SDS011;1546;47.208;9.038;2023-04-27T12:56:08;6.27;;;1.70;;
3070;SDS011;1546;47.208;9.038;2023-04-27T12:58:36;7.70;;;2.00;;
3070;SDS011;1546;47.208;9.038;2023-04-27T13:01:04;3.97;;;1.43;;
3070;SDS011;1546;47.208;9.038;2023-04-27T13:03:38;4.30;;;1.77;;
3070;SDS011;1546;47.208;9.038;2023-04-27T13:06:05;7.70;;;1.73;;
3070;SDS011;1546;47.208;9.038;2023-04-27T13:08:33;3.67;;;1.60;;
3070;SDS011;1546;47.208;9.038;2023-04-27T13:11:01;4.57;;;1.93;;
3070;SDS011;1546;47.208;9.038;2023-04-27T13:13:27;6.30;;;1.63;;
3070;SDS011;1546;47.208;9.038;2023-04-27T13:15:56;5.57;;;1.80;;
3070;SDS011;1546;47.208;9.038;2023-04-27T13:18:23;3.90;;;1.60;;
3070;SDS011;1546;47.208;9.038;2023-04-27T13:20:50;4.07;;;1.37;;
3070;SDS011;1546;47.208;9.038;2023-04-27T13:23:17;4.50;;;2.10;;
3070;SDS011;1546;47.208;9.038;2023-04-27T13:25:44;4.63;;;1.73;;
3070;SDS011;1546;47.208;9.038;2023-04-27T13:28:10;33.40;;;2.23;;
3070;SDS011;1546;47.208;9.038;2023-04-27T13:30:38;4.07;;;1.50;;
3070;SDS011;1546;47.208;9.038;2023-04-27T13:33:06;4.00;;;1.60;;
3070;SDS011;1546;47.208;9.038;2023-04-27T13:35:36;4.30;;;1.70;;
3070;SDS011;1546;47.208;9.038;2023-04-27T13:38:03;5.20;;;1.80;;
3070;SDS011;1546;47.208;9.038;2023-04-27T13:40:30;5.07;;;1.87;;
3070;SDS011;1546;47.208;9.038;2023-04-27T13:42:57;7.27;;;1.90;;
3070;SDS011;1546;47.208;9.038;2023-04-27T13:45:24;4.20;;;1.70;;
3070;SDS011;1546;47.208;9.038;2023-04-27T13:47:51;7.07;;;1.77;;
3070;SDS011;1546;47.208;9.038;2023-04-27T13:50:19;5.43;;;2.00;;
3070;SDS011;1546;47.208;9.038;2023-04-27T13:52:46;5.70;;;1.90;;
3070;SDS011;1546;47.208;9.038;2023-04-27T13:55:13;5.47;;;2.37;;
3070;SDS011;1546;47.208;9.038;2023-04-27T13:57:40;4.77;;;1.90;;
3070;SDS011;1546;47.208;9.038;2023-04-27T14:00:08;4.50;;;1.40;;
3070;SDS011;1546;47.208;9.038;2023-04-27T14:02:35;7.90;;;1.80;;
3070;SDS011;1546;47.208;9.038;2023-04-27T14:05:02;4.00;;;1.40;;
3070;SDS011;1546;47.208;9.038;2023-04-27T14:07:31;5.30;;;1.73;;
3070;SDS011;1546;47.208;9.038;2023-04-27T14:09:59;5.93;;;1.80;;
3070;SDS011;1546;47.208;9.038;2023-04-27T14:12:27;6.10;;;1.80;;
3070;SDS011;1546;47.208;9.038;2023-04-27T14:14:54;4.10;;;1.60;;
3070;SDS011;1546;47.208;9.038;2023-04-27T14:17:21;9.97;;;2.30;;
3070;SDS011;1546;47.208;9.038;2023-04-27T14:19:48;5.47;;;2.60;;
3070;SDS011;1546;47.208;9.038;2023-04-27T14:22:14;5.63;;;2.57;;
3070;SDS011;1546;47.208;9.038;2023-04-27T14:24:43;4.30;;;1.70;;
3070;SDS011;1546;47.208;9.038;2023-04-27T14:27:10;4.87;;;2.13;;
3070;SDS011;1546;47.208;9.038;2023-04-27T14:29:37;4.77;;;1.80;;
3070;SDS011;1546;47.208;9.038;2023-04-27T14:32:04;6.33;;;2.10;;
3070;SDS011;1546;47.208;9.038;2023-04-27T14:34:31;5.90;;;2.07;;
3070;SDS011;1546;47.208;9.038;2023-04-27T14:36:58;6.30;;;2.33;;
3070;SDS011;1546;47.208;9.038;2023-04-27T14:39:25;5.40;;;2.37;;
3070;SDS011;1546;47.208;9.038;2023-04-27T14:41:54;4.47;;;2.03;;
3070;SDS011;1546;47.208;9.038;2023-04-27T14:44:21;5.17;;;1.90;;
3070;SDS011;1546;47.208;9.038;2023-04-27T14:46:48;4.60;;;2.23;;
3070;SDS011;1546;47.208;9.038;2023-04-27T14:49:15;4.80;;;2.33;;
3070;SDS011;1546;47.208;9.038;2023-04-27T14:51:42;5.87;;;1.90;;
3070;SDS011;1546;47.208;9.038;2023-04-27T14:54:09;8.07;;;2.07;;
3070;SDS011;1546;47.208;9.038;2023-04-27T14:56:37;3.90;;;1.50;;
3070;SDS011;1546;47.208;9.038;2023-04-27T14:59:05;5.43;;;2.23;;
3070;SDS011;1546;47.208;9.038;2023-04-27T15:01:32;6.20;;;1.80;;
3070;SDS011;1546;47.208;9.038;2023-04-27T15:04:00;7.07;;;2.90;;
3070;SDS011;1546;47.208;9.038;2023-04-27T15:06:27;4.70;;;2.17;;
3070;SDS011;1546;47.208;9.038;2023-04-27T15:08:54;5.97;;;2.23;;
3070;SDS011;1546;47.208;9.038;2023-04-27T15:11:21;5.80;;;2.13;;
3070;SDS011;1546;47.208;9.038;2023-04-27T15:13:48;5.43;;;2.37;;
3070;SDS011;1546;47.208;9.038;2023-04-27T15:16:17;6.80;;;2.30;;
3070;SDS011;1546;47.208;9.038;2023-04-27T15:18:45;5.80;;;2.47;;